Time;durP1;ratioP1;P1;durP2;ratioP2;P2;SDS_P1;SDS_P2;PMS_P1;PMS_P2;Temp;Humidity;BMP_temperature;BMP_pressure;BME280_temperature;BME280_humidity;BME280_pressure;Samples;Min_cycle;Max_cycle;Signal;HPM_P1;HPM_P2
2022/11/21 00:01:44;;;;;;;0.00;0.00;;;;;;;;;;5051426;28;20364;-79
2022/11/21 00:04:11;;;;;;;0.00;0.00;;;;;;;;;;5050431;28;20044;-79
2022/11/21 00:06:37;;;;;;;0.00;0.00;;;;;;;;;;5050063;28;20025;-78
2022/11/21 00:09:03;;;;;;;0.00;0.00;;;;;;;;;;5049621;28;20396;-78
2022/11/21 00:11:30;;;;;;;0.00;0.00;;;;;;;;;;5047987;28;20112;-80
2022/11/21 00:13:56;;;;;;;0.00;0.00;;;;;;;;;;5050782;28;20013;-79
2022/11/21 00:16:22;;;;;;;0.00;0.00;;;;;;;;;;5049481;28;20025;-79
2022/11/21 00:18:49;;;;;;;0.00;0.00;;;;;;;;;;5050340;28;20021;-77
2022/11/21 00:21:16;;;;;;;0.00;0.00;;;;;;;;;;5049547;28;20027;-77
2022/11/21 00:23:43;;;;;;;0.00;0.00;;;;;;;;;;5048880;28;20025;-79
2022/11/21 00:26:10;;;;;;;0.00;0.00;;;;;;;;;;5055974;28;20124;-78
2022/11/21 00:28:37;;;;;;;0.00;0.00;;;;;;;;;;5048051;28;20021;-80
2022/11/21 00:31:03;;;;;;;0.00;0.00;;;;;;;;;;5051596;28;20044;-79
2022/11/21 00:33:30;;;;;;;0.00;0.00;;;;;;;;;;5050297;28;20033;-76
2022/11/21 00:35:56;;;;;;;0.00;0.00;;;;;;;;;;5051464;28;20061;-79
2022/11/21 00:38:25;;;;;;;0.00;0.00;;;;;;;;;;5050269;28;20025;-79
2022/11/21 00:40:52;;;;;;;0.00;0.00;;;;;;;;;;5049324;28;20056;-77
2022/11/21 00:43:18;;;;;;;0.00;0.00;;;;;;;;;;5049369;28;20025;-77
2022/11/21 00:45:44;;;;;;;0.00;0.00;;;;;;;;;;5048785;28;20135;-80
2022/11/21 00:48:11;;;;;;;0.00;0.00;;;;;;;;;;5048743;28;20033;-78
2022/11/21 00:50:37;;;;;;;0.00;0.00;;;;;;;;;;5050833;28;20036;-80
2022/11/21 00:53:03;;;;;;;0.00;0.00;;;;;;;;;;5033910;28;20029;-80
2022/11/21 00:55:30;;;;;;;0.00;0.00;;;;;;;;;;5051190;28;20033;-80
2022/11/21 00:57:56;;;;;;;0.00;0.00;;;;;;;;;;5049892;28;20025;-83
2022/11/21 01:00:22;;;;;;;0.00;0.00;;;;;;;;;;5029403;28;20027;-81
2022/11/21 01:02:49;;;;;;;0.00;0.00;;;;;;;;;;5044148;28;20071;-82
2022/11/21 01:05:15;;;;;;;0.00;0.00;;;;;;;;;;5045120;28;20017;-77
2022/11/21 01:07:41;;;;;;;0.00;0.00;;;;;;;;;;5048446;28;20060;-82
2022/11/21 01:10:08;;;;;;;0.00;0.00;;;;;;;;;;5047944;28;20135;-80
2022/11/21 01:12:34;;;;;;;0.00;0.00;;;;;;;;;;5048032;28;20028;-83
2022/11/21 01:15:00;;;;;;;0.00;0.00;;;;;;;;;;5050707;28;20036;-79
2022/11/21 01:17:27;;;;;;;0.00;0.00;;;;;;;;;;5058202;28;20025;-81
2022/11/21 01:19:53;;;;;;;0.00;0.00;;;;;;;;;;5059866;28;20021;-79
2022/11/21 01:22:19;;;;;;;0.00;0.00;;;;;;;;;;5050382;28;20216;-79
2022/11/21 01:24:46;;;;;;;0.00;0.00;;;;;;;;;;5052387;28;20032;-81
2022/11/21 01:27:12;;;;;;;0.00;0.00;;;;;;;;;;5051257;28;20025;-79
2022/11/21 01:29:39;;;;;;;0.00;0.00;;;;;;;;;;5050801;28;20103;-79
2022/11/21 01:32:05;;;;;;;0.00;0.00;;;;;;;;;;5047921;28;20071;-77
2022/11/21 01:34:31;;;;;;;0.00;0.00;;;;;;;;;;5049840;28;20478;-76
2022/11/21 01:36:58;;;;;;;0.00;0.00;;;;;;;;;;5054141;28;20028;-82
2022/11/21 01:39:24;;;;;;;0.00;0.00;;;;;;;;;;5033607;28;20024;-79
2022/11/21 01:41:51;;;;;;;0.00;0.00;;;;;;;;;;5052979;28;20029;-79
2022/11/21 01:44:17;;;;;;;0.00;0.00;;;;;;;;;;5053161;28;20059;-79
2022/11/21 01:46:44;;;;;;;0.00;0.00;;;;;;;;;;5055012;28;20032;-81
2022/11/21 01:49:18;;;;;;;0.00;0.00;;;;;;;;;;5054037;28;20096;-81
2022/11/21 01:51:44;;;;;;;0.00;0.00;;;;;;;;;;5050972;28;20470;-79
2022/11/21 01:54:17;;;;;;;0.00;0.00;;;;;;;;;;5051307;28;20108;-77
2022/11/21 01:56:43;;;;;;;0.00;0.00;;;;;;;;;;5049799;28;20028;-79
2022/11/21 01:59:11;;;;;;;0.00;0.00;;;;;;;;;;5051389;28;20083;-81
2022/11/21 02:01:37;;;;;;;0.00;0.00;;;;;;;;;;5050808;28;20020;-82
2022/11/21 02:04:04;;;;;;;0.00;0.00;;;;;;;;;;5050864;28;20350;-79
2022/11/21 02:06:31;;;;;;;0.00;0.00;;;;;;;;;;5051801;28;20094;-80
2022/11/21 02:08:59;;;;;;;0.00;0.00;;;;;;;;;;5053625;28;20045;-80
2022/11/21 02:11:31;;;;;;;0.00;0.00;;;;;;;;;;5035816;28;20021;-81
2022/11/21 02:13:59;;;;;;;0.00;0.00;;;;;;;;;;5051734;28;20032;-84
2022/11/21 02:16:26;;;;;;;0.00;0.00;;;;;;;;;;5052747;28;20055;-83
2022/11/21 02:18:52;;;;;;;0.00;0.00;;;;;;;;;;5051995;28;20465;-79
2022/11/21 02:21:18;;;;;;;0.00;0.00;;;;;;;;;;5043569;28;20501;-79
2022/11/21 02:23:49;;;;;;;0.00;0.00;;;;;;;;;;5051433;28;20033;-80
2022/11/21 02:26:16;;;;;;;0.00;0.00;;;;;;;;;;5048964;28;20054;-79
2022/11/21 02:28:42;;;;;;;0.00;0.00;;;;;;;;;;5048389;28;20028;-79
2022/11/21 02:31:09;;;;;;;0.00;0.00;;;;;;;;;;5047502;28;20052;-80
2022/11/21 02:33:35;;;;;;;0.00;0.00;;;;;;;;;;5049004;28;20033;-80
2022/11/21 02:36:02;;;;;;;0.00;0.00;;;;;;;;;;5043676;28;20381;-78
2022/11/21 02:38:38;;;;;;;0.00;0.00;;;;;;;;;;5046956;28;20025;-78
2022/11/21 02:41:12;;;;;;;0.00;0.00;;;;;;;;;;5049021;28;20170;-80
2022/11/21 02:43:47;;;;;;;0.00;0.00;;;;;;;;;;5047885;28;20054;-79
2022/11/21 02:46:13;;;;;;;0.00;0.00;;;;;;;;;;5047661;28;20052;-77
2022/11/21 02:48:40;;;;;;;0.00;0.00;;;;;;;;;;5051177;28;20036;-81
2022/11/21 02:51:06;;;;;;;0.00;0.00;;;;;;;;;;5046988;28;20036;-76
2022/11/21 02:53:33;;;;;;;0.00;0.00;;;;;;;;;;5042961;28;20047;-78
2022/11/21 02:55:59;;;;;;;0.00;0.00;;;;;;;;;;5047461;28;20028;-77
2022/11/21 02:58:25;;;;;;;0.00;0.00;;;;;;;;;;5046974;28;20037;-78
2022/11/21 03:00:53;;;;;;;0.00;0.00;;;;;;;;;;5038123;28;20765;-78
2022/11/21 03:03:20;;;;;;;0.00;0.00;;;;;;;;;;5038349;28;20079;-73
2022/11/21 03:05:47;;;;;;;0.00;0.00;;;;;;;;;;5033931;28;20029;-74
2022/11/21 03:08:13;;;;;;;0.00;0.00;;;;;;;;;;5037920;28;20582;-74
2022/11/21 03:10:40;;;;;;;0.00;0.00;;;;;;;;;;5035568;28;20049;-73
2022/11/21 03:13:06;;;;;;;0.00;0.00;;;;;;;;;;5043938;28;20096;-73
2022/11/21 03:15:33;;;;;;;0.00;0.00;;;;;;;;;;5043721;28;20021;-74
2022/11/21 03:18:01;;;;;;;0.00;0.00;;;;;;;;;;5049132;28;20028;-74
2022/11/21 03:20:28;;;;;;;0.00;0.00;;;;;;;;;;5048106;28;20140;-72
2022/11/21 03:22:55;;;;;;;0.00;0.00;;;;;;;;;;5046248;28;20024;-77
2022/11/21 03:25:21;;;;;;;0.00;0.00;;;;;;;;;;5040774;28;20033;-74
2022/11/21 03:27:51;;;;;;;0.00;0.00;;;;;;;;;;5044784;28;20051;-73
2022/11/21 03:30:17;;;;;;;0.00;0.00;;;;;;;;;;5044490;28;20154;-73
2022/11/21 03:32:43;;;;;;;0.00;0.00;;;;;;;;;;5041332;28;20061;-73
2022/11/21 03:35:10;;;;;;;0.00;0.00;;;;;;;;;;5040532;28;20028;-73
2022/11/21 03:37:36;;;;;;;0.00;0.00;;;;;;;;;;5045617;28;20024;-73
2022/11/21 03:40:03;;;;;;;0.00;0.00;;;;;;;;;;5045167;28;20040;-72
2022/11/21 03:42:29;;;;;;;0.00;0.00;;;;;;;;;;5046830;28;20057;-74
2022/11/21 03:44:55;;;;;;;0.00;0.00;;;;;;;;;;5047148;28;20027;-73
2022/11/21 03:47:23;;;;;;;0.00;0.00;;;;;;;;;;5042847;28;20044;-76
2022/11/21 03:49:49;;;;;;;0.00;0.00;;;;;;;;;;5044310;28;20029;-75
2022/11/21 03:52:16;;;;;;;0.00;0.00;;;;;;;;;;5043299;28;20039;-76
2022/11/21 03:54:42;;;;;;;0.00;0.00;;;;;;;;;;5043169;28;20385;-75
2022/11/21 03:57:08;;;;;;;0.00;0.00;;;;;;;;;;5048540;28;20466;-75
2022/11/21 03:59:35;;;;;;;0.00;0.00;;;;;;;;;;5042006;28;20107;-76
2022/11/21 04:02:01;;;;;;;0.00;0.00;;;;;;;;;;5043784;28;20021;-75
2022/11/21 04:04:28;;;;;;;0.00;0.00;;;;;;;;;;5042196;28;20025;-76
2022/11/21 04:06:54;;;;;;;0.00;0.00;;;;;;;;;;5046111;28;20029;-75
2022/11/21 04:09:20;;;;;;;0.00;0.00;;;;;;;;;;5047236;28;20052;-76
2022/11/21 04:11:46;;;;;;;0.00;0.00;;;;;;;;;;5044807;28;20048;-75
2022/11/21 04:14:13;;;;;;;0.00;0.00;;;;;;;;;;5041496;28;20930;-74
2022/11/21 04:16:39;;;;;;;0.00;0.00;;;;;;;;;;5045935;28;20130;-73
2022/11/21 04:19:05;;;;;;;0.00;0.00;;;;;;;;;;5052385;28;20052;-85
2022/11/21 04:21:32;;;;;;;0.00;0.00;;;;;;;;;;5052697;28;20125;-85
2022/11/21 04:23:58;;;;;;;0.00;0.00;;;;;;;;;;5049228;28;20056;-82
2022/11/21 04:26:24;;;;;;;0.00;0.00;;;;;;;;;;5040778;28;20022;-84
2022/11/21 04:28:51;;;;;;;0.00;0.00;;;;;;;;;;5043841;28;20097;-82
2022/11/21 04:31:17;;;;;;;0.00;0.00;;;;;;;;;;5033403;28;20032;-83
2022/11/21 04:33:43;;;;;;;0.00;0.00;;;;;;;;;;5045357;28;20504;-82
2022/11/21 04:36:10;;;;;;;0.00;0.00;;;;;;;;;;5046943;28;20025;-83
2022/11/21 04:38:36;;;;;;;0.00;0.00;;;;;;;;;;5055062;28;20474;-84
2022/11/21 04:41:03;;;;;;;0.00;0.00;;;;;;;;;;5030484;28;20110;-82
2022/11/21 04:43:30;;;;;;;0.00;0.00;;;;;;;;;;5052704;28;20067;-84
2022/11/21 04:45:56;;;;;;;0.00;0.00;;;;;;;;;;5041396;28;20030;-83
2022/11/21 04:48:23;;;;;;;0.00;0.00;;;;;;;;;;5051341;28;20017;-84
2022/11/21 04:50:49;;;;;;;0.00;0.00;;;;;;;;;;5033038;28;20112;-84
2022/11/21 04:53:16;;;;;;;0.00;0.00;;;;;;;;;;5034731;28;20044;-83
2022/11/21 04:55:42;;;;;;;0.00;0.00;;;;;;;;;;5052755;28;20073;-85
2022/11/21 04:58:08;;;;;;;0.00;0.00;;;;;;;;;;5056237;28;20088;-83
2022/11/21 05:00:35;;;;;;;0.00;0.00;;;;;;;;;;5055276;28;20492;-83
2022/11/21 05:03:05;;;;;;;0.00;0.00;;;;;;;;;;5053136;28;20726;-82
2022/11/21 05:05:31;;;;;;;0.00;0.00;;;;;;;;;;5026746;28;20034;-83
2022/11/21 05:07:58;;;;;;;0.00;0.00;;;;;;;;;;5037048;28;20458;-83
2022/11/21 05:10:24;;;;;;;0.00;0.00;;;;;;;;;;5057970;28;20048;-84
2022/11/21 05:15:42;;;;;;;0.00;0.00;;;;;;;;;;5049590;28;20071;-83
2022/11/21 05:18:09;;;;;;;0.00;0.00;;;;;;;;;;5052155;28;20078;-82
2022/11/21 05:20:35;;;;;;;0.00;0.00;;;;;;;;;;5046515;28;20033;-82
2022/11/21 05:23:01;;;;;;;0.00;0.00;;;;;;;;;;5039303;28;20044;-83
2022/11/21 05:25:28;;;;;;;0.00;0.00;;;;;;;;;;5047503;28;20112;-83
2022/11/21 05:27:57;;;;;;;0.00;0.00;;;;;;;;;;5047015;28;20486;-83
2022/11/21 05:30:23;;;;;;;0.00;0.00;;;;;;;;;;5049547;28;20477;-83
2022/11/21 05:32:50;;;;;;;0.00;0.00;;;;;;;;;;5047442;28;20032;-83
2022/11/21 05:35:16;;;;;;;0.00;0.00;;;;;;;;;;5046602;28;21255;-82
2022/11/21 05:37:42;;;;;;;0.00;0.00;;;;;;;;;;5045961;28;20067;-81
2022/11/21 05:40:09;;;;;;;0.00;0.00;;;;;;;;;;5047716;28;20103;-81
2022/11/21 05:45:23;;;;;;;0.00;0.00;;;;;;;;;;5044538;28;20044;-82
2022/11/21 05:47:49;;;;;;;0.00;0.00;;;;;;;;;;5043456;28;20029;-85
2022/11/21 05:50:15;;;;;;;0.00;0.00;;;;;;;;;;5046517;28;20512;-82
2022/11/21 05:52:42;;;;;;;0.00;0.00;;;;;;;;;;5021987;28;20394;-83
2022/11/21 05:55:08;;;;;;;0.00;0.00;;;;;;;;;;5037786;28;20032;-83
2022/11/21 05:57:34;;;;;;;0.00;0.00;;;;;;;;;;5042153;28;20105;-83
2022/11/21 06:00:01;;;;;;;0.00;0.00;;;;;;;;;;5043882;28;20025;-83
2022/11/21 06:05:12;;;;;;;0.00;0.00;;;;;;;;;;5046518;28;20052;-83
2022/11/21 06:07:38;;;;;;;0.00;0.00;;;;;;;;;;5045944;28;20021;-82
2022/11/21 06:10:04;;;;;;;0.00;0.00;;;;;;;;;;5042582;28;20135;-82
2022/11/21 06:12:31;;;;;;;0.00;0.00;;;;;;;;;;5040267;28;20029;-83
2022/11/21 06:14:57;;;;;;;0.00;0.00;;;;;;;;;;5048862;28;20438;-82
2022/11/21 06:17:23;;;;;;;0.00;0.00;;;;;;;;;;5044022;28;20550;-83
2022/11/21 06:19:50;;;;;;;0.00;0.00;;;;;;;;;;5050455;28;20408;-82
2022/11/21 06:22:16;;;;;;;0.00;0.00;;;;;;;;;;5048197;28;20025;-83
2022/11/21 06:24:42;;;;;;;0.00;0.00;;;;;;;;;;5049202;28;20490;-81
2022/11/21 06:27:09;;;;;;;0.00;0.00;;;;;;;;;;5044829;28;20029;-83
2022/11/21 06:29:35;;;;;;;0.00;0.00;;;;;;;;;;5045576;28;20021;-83
2022/11/21 06:32:02;;;;;;;0.00;0.00;;;;;;;;;;5046545;28;20028;-81
2022/11/21 06:34:28;;;;;;;0.00;0.00;;;;;;;;;;5043716;28;20049;-82
2022/11/21 06:36:54;;;;;;;0.00;0.00;;;;;;;;;;5046040;28;20017;-83
2022/11/21 06:39:21;;;;;;;0.00;0.00;;;;;;;;;;5046434;28;20028;-83
2022/11/21 06:41:49;;;;;;;0.00;0.00;;;;;;;;;;5049798;28;20033;-84
2022/11/21 06:44:19;;;;;;;0.00;0.00;;;;;;;;;;5048126;28;20017;-83
2022/11/21 06:46:45;;;;;;;0.00;0.00;;;;;;;;;;5047405;28;20108;-81
2022/11/21 06:49:12;;;;;;;0.00;0.00;;;;;;;;;;5045268;28;20457;-82
2022/11/21 06:51:38;;;;;;;0.00;0.00;;;;;;;;;;5035297;28;20067;-82
2022/11/21 06:54:04;;;;;;;0.00;0.00;;;;;;;;;;5043835;28;20047;-83
2022/11/21 06:56:31;;;;;;;0.00;0.00;;;;;;;;;;5041673;28;20032;-81
2022/11/21 06:58:58;;;;;;;0.00;0.00;;;;;;;;;;5040606;28;20282;-83
2022/11/21 07:01:24;;;;;;;0.00;0.00;;;;;;;;;;5045503;28;20025;-83
2022/11/21 07:03:51;;;;;;;0.00;0.00;;;;;;;;;;5047058;28;20476;-83
2022/11/21 07:06:17;;;;;;;0.00;0.00;;;;;;;;;;5040978;28;20091;-83
2022/11/21 07:08:43;;;;;;;0.00;0.00;;;;;;;;;;5048605;28;20036;-82
2022/11/21 07:11:11;;;;;;;0.00;0.00;;;;;;;;;;5043584;28;20576;-84
2022/11/21 07:13:37;;;;;;;0.00;0.00;;;;;;;;;;5044594;28;20108;-83
2022/11/21 07:16:06;;;;;;;0.00;0.00;;;;;;;;;;5041886;28;20017;-81
2022/11/21 07:18:33;;;;;;;0.00;0.00;;;;;;;;;;5045051;28;20037;-82
2022/11/21 07:21:00;;;;;;;0.00;0.00;;;;;;;;;;5049157;28;20029;-82
2022/11/21 07:23:27;;;;;;;0.00;0.00;;;;;;;;;;5049727;28;20036;-82
2022/11/21 07:25:53;;;;;;;0.00;0.00;;;;;;;;;;5046235;28;20543;-84
2022/11/21 07:28:19;;;;;;;0.00;0.00;;;;;;;;;;5047688;28;20043;-82
2022/11/21 07:30:46;;;;;;;0.00;0.00;;;;;;;;;;5053694;28;20021;-82
2022/11/21 07:33:12;;;;;;;0.00;0.00;;;;;;;;;;5054713;28;20025;-84
2022/11/21 07:35:38;;;;;;;0.00;0.00;;;;;;;;;;5050439;28;20022;-84
2022/11/21 07:38:05;;;;;;;0.00;0.00;;;;;;;;;;5051785;28;20029;-83
2022/11/21 07:40:34;;;;;;;0.00;0.00;;;;;;;;;;5051238;28;20074;-83
2022/11/21 07:43:02;;;;;;;0.00;0.00;;;;;;;;;;5024344;28;20112;-83
2022/11/21 07:45:28;;;;;;;0.00;0.00;;;;;;;;;;5046704;28;20028;-84
2022/11/21 07:48:02;;;;;;;0.00;0.00;;;;;;;;;;5029007;28;20021;-85
2022/11/21 07:50:48;;;;;;;0.00;0.00;;;;;;;;;;5047361;28;20448;-84
2022/11/21 07:53:27;;;;;;;0.00;0.00;;;;;;;;;;5041880;28;20021;-85
2022/11/21 07:55:54;;;;;;;0.00;0.00;;;;;;;;;;5047388;28;20067;-83
2022/11/21 07:58:20;;;;;;;0.00;0.00;;;;;;;;;;5050822;28;20232;-84
2022/11/21 08:00:49;;;;;;;0.00;0.00;;;;;;;;;;5048430;28;20025;-83
2022/11/21 08:03:15;;;;;;;0.00;0.00;;;;;;;;;;5026786;28;20996;-83
2022/11/21 08:05:42;;;;;;;0.00;0.00;;;;;;;;;;5049239;28;20056;-83
2022/11/21 08:08:12;;;;;;;0.00;0.00;;;;;;;;;;5044425;28;20366;-84
2022/11/21 08:10:43;;;;;;;0.00;0.00;;;;;;;;;;5042962;28;20496;-83
2022/11/21 08:13:09;;;;;;;0.00;0.00;;;;;;;;;;5044938;28;20055;-83
2022/11/21 08:15:36;;;;;;;0.00;0.00;;;;;;;;;;5049180;28;20036;-82
2022/11/21 08:18:08;;;;;;;0.00;0.00;;;;;;;;;;5043901;28;20060;-83
2022/11/21 08:20:34;;;;;;;0.00;0.00;;;;;;;;;;5044687;28;20033;-83
2022/11/21 08:23:01;;;;;;;0.00;0.00;;;;;;;;;;5044459;28;20025;-84
2022/11/21 08:25:27;;;;;;;0.00;0.00;;;;;;;;;;5051948;28;20025;-84
2022/11/21 08:27:57;;;;;;;0.00;0.00;;;;;;;;;;5047658;28;20021;-82
2022/11/21 08:30:23;;;;;;;0.00;0.00;;;;;;;;;;5058802;28;20029;-82
2022/11/21 08:32:50;;;;;;;0.00;0.00;;;;;;;;;;5049160;28;20481;-84
2022/11/21 08:35:16;;;;;;;0.00;0.00;;;;;;;;;;5046866;28;20548;-81
2022/11/21 08:37:42;;;;;;;0.00;0.00;;;;;;;;;;5051214;28;20032;-83
2022/11/21 08:40:09;;;;;;;0.00;0.00;;;;;;;;;;5051021;28;20052;-82
2022/11/21 08:42:36;;;;;;;0.00;0.00;;;;;;;;;;5051718;28;20033;-83
2022/11/21 08:45:04;;;;;;;0.00;0.00;;;;;;;;;;5046756;28;20025;-84
2022/11/21 08:47:32;;;;;;;0.00;0.00;;;;;;;;;;5046015;28;20028;-82
2022/11/21 08:49:58;;;;;;;0.00;0.00;;;;;;;;;;5042200;28;20709;-83
2022/11/21 08:52:25;;;;;;;0.00;0.00;;;;;;;;;;5046316;28;20028;-83
2022/11/21 08:54:51;;;;;;;0.00;0.00;;;;;;;;;;5045208;28;20444;-81
2022/11/21 08:57:17;;;;;;;0.00;0.00;;;;;;;;;;5049552;28;20025;-83
2022/11/21 08:59:45;;;;;;;0.00;0.00;;;;;;;;;;5047671;28;20032;-84
2022/11/21 09:02:11;;;;;;;0.00;0.00;;;;;;;;;;5044315;28;20033;-84
2022/11/21 09:04:37;;;;;;;0.00;0.00;;;;;;;;;;5043771;28;20036;-83
2022/11/21 09:07:04;;;;;;;0.00;0.00;;;;;;;;;;5036546;28;20040;-83
2022/11/21 09:09:30;;;;;;;0.00;0.00;;;;;;;;;;5043956;28;20045;-84
2022/11/21 09:11:56;;;;;;;0.00;0.00;;;;;;;;;;5042809;28;20033;-83
2022/11/21 09:19:57;;;;;;;0.00;0.00;;;;;;;;;;5047930;28;20114;-81
2022/11/21 09:22:24;;;;;;;0.00;0.00;;;;;;;;;;5056032;28;20476;-84
2022/11/21 09:24:51;;;;;;;0.00;0.00;;;;;;;;;;5044078;28;20136;-82
2022/11/21 09:27:17;;;;;;;0.00;0.00;;;;;;;;;;5043980;28;20036;-81
2022/11/21 09:29:44;;;;;;;0.00;0.00;;;;;;;;;;5043860;28;20027;-81
2022/11/21 09:32:10;;;;;;;0.00;0.00;;;;;;;;;;5044170;28;20042;-81
2022/11/21 09:34:36;;;;;;;0.00;0.00;;;;;;;;;;5045873;28;20036;-85
2022/11/21 09:37:03;;;;;;;0.00;0.00;;;;;;;;;;5045243;28;20409;-84
2022/11/21 09:39:29;;;;;;;0.00;0.00;;;;;;;;;;5044080;28;20033;-85
2022/11/21 09:42:04;;;;;;;0.00;0.00;;;;;;;;;;5043523;28;20036;-83
2022/11/21 09:44:39;;;;;;;0.00;0.00;;;;;;;;;;5046296;28;20442;-84
2022/11/21 09:47:26;;;;;;;0.00;0.00;;;;;;;;;;5044226;28;20028;-84
2022/11/21 09:50:02;;;;;;;0.00;0.00;;;;;;;;;;5048904;28;20029;-83
2022/11/21 09:52:37;;;;;;;0.00;0.00;;;;;;;;;;5043157;28;20029;-85
2022/11/21 09:55:06;;;;;;;0.00;0.00;;;;;;;;;;5042018;28;20028;-82
2022/11/21 09:57:34;;;;;;;0.00;0.00;;;;;;;;;;5046933;28;20044;-83
2022/11/21 10:00:01;;;;;;;0.00;0.00;;;;;;;;;;5045768;28;20017;-82
2022/11/21 10:02:27;;;;;;;0.00;0.00;;;;;;;;;;5045032;28;20033;-83
2022/11/21 10:04:59;;;;;;;0.00;0.00;;;;;;;;;;5044828;28;20061;-84
2022/11/21 10:07:27;;;;;;;0.00;0.00;;;;;;;;;;5041770;28;20025;-86
2022/11/21 10:10:08;;;;;;;0.00;0.00;;;;;;;;;;5040823;28;20072;-84
2022/11/21 10:12:52;;;;;;;0.00;0.00;;;;;;;;;;5048328;28;20029;-84
2022/11/21 10:15:19;;;;;;;0.00;0.00;;;;;;;;;;5042773;28;20091;-83
2022/11/21 10:17:57;;;;;;;0.00;0.00;;;;;;;;;;5047822;28;20060;-87
2022/11/21 10:20:29;;;;;;;0.00;0.00;;;;;;;;;;5045768;28;20025;-85
2022/11/21 10:22:56;;;;;;;0.00;0.00;;;;;;;;;;5046572;28;20024;-83
2022/11/21 10:25:30;;;;;;;0.00;0.00;;;;;;;;;;5047847;28;20319;-84
2022/11/21 10:28:00;;;;;;;0.00;0.00;;;;;;;;;;5054749;28;20062;-82
2022/11/21 10:30:28;;;;;;;0.00;0.00;;;;;;;;;;5047358;28;20033;-85
2022/11/21 10:33:15;;;;;;;0.00;0.00;;;;;;;;;;5049077;28;20365;-84
2022/11/21 10:35:43;;;;;;;0.00;0.00;;;;;;;;;;5045254;28;20029;-85
2022/11/21 10:38:17;;;;;;;0.00;0.00;;;;;;;;;;5053883;28;20043;-85
2022/11/21 10:40:46;;;;;;;0.00;0.00;;;;;;;;;;5050238;28;20029;-84
2022/11/21 10:46:09;;;;;;;0.00;0.00;;;;;;;;;;5044109;28;20047;-84
2022/11/21 10:48:35;;;;;;;0.00;0.00;;;;;;;;;;5046094;28;20079;-83
2022/11/21 10:51:11;;;;;;;0.00;0.00;;;;;;;;;;5041824;28;20029;-84
2022/11/21 10:56:23;;;;;;;0.00;0.00;;;;;;;;;;5040495;28;20478;-84
2022/11/21 10:58:50;;;;;;;0.00;0.00;;;;;;;;;;5040666;28;20181;-86
2022/11/21 11:01:19;;;;;;;0.00;0.00;;;;;;;;;;5039801;28;20048;-82
2022/11/21 11:03:46;;;;;;;0.00;0.00;;;;;;;;;;5042456;28;20096;-82
2022/11/21 11:06:12;;;;;;;0.00;0.00;;;;;;;;;;5041881;28;20039;-83
2022/11/21 11:08:56;;;;;;;0.00;0.00;;;;;;;;;;5039916;28;20057;-83
2022/11/21 11:11:26;;;;;;;0.00;0.00;;;;;;;;;;5039361;28;20040;-84
2022/11/21 11:13:52;;;;;;;0.00;0.00;;;;;;;;;;5042235;28;20033;-84
2022/11/21 11:16:20;;;;;;;0.00;0.00;;;;;;;;;;5040550;28;20504;-84
2022/11/21 11:18:55;;;;;;;0.00;0.00;;;;;;;;;;5038297;28;20082;-83
2022/11/21 11:21:29;;;;;;;0.00;0.00;;;;;;;;;;5047516;28;20032;-83
2022/11/21 11:24:06;;;;;;;0.00;0.00;;;;;;;;;;5052446;28;20025;-84
2022/11/21 11:26:32;;;;;;;0.00;0.00;;;;;;;;;;5051154;28;20025;-85
2022/11/21 11:29:09;;;;;;;0.00;0.00;;;;;;;;;;5050986;28;20166;-83
2022/11/21 11:31:45;;;;;;;0.00;0.00;;;;;;;;;;5044292;28;20021;-82
2022/11/21 11:34:14;;;;;;;0.00;0.00;;;;;;;;;;5048062;28;20021;-83
2022/11/21 11:36:51;;;;;;;0.00;0.00;;;;;;;;;;5053770;28;20485;-87
2022/11/21 11:39:24;;;;;;;0.00;0.00;;;;;;;;;;5054074;28;20031;-84
2022/11/21 11:48:04;;;;;;;0.00;0.00;;;;;;;;;;5049877;28;20036;-85
2022/11/21 11:50:30;;;;;;;0.00;0.00;;;;;;;;;;5052358;28;20473;-84
2022/11/21 11:53:02;;;;;;;0.00;0.00;;;;;;;;;;5048258;28;20064;-83
2022/11/21 11:55:43;;;;;;;0.00;0.00;;;;;;;;;;5044400;28;20025;-85
2022/11/21 11:58:36;;;;;;;0.00;0.00;;;;;;;;;;5029766;28;20037;-81
2022/11/21 12:01:08;;;;;;;0.00;0.00;;;;;;;;;;5033283;28;20124;-82
2022/11/21 12:04:00;;;;;;;0.00;0.00;;;;;;;;;;5042653;28;20034;-82
2022/11/21 12:06:28;;;;;;;0.00;0.00;;;;;;;;;;5020544;28;20520;-83
2022/11/21 12:09:17;;;;;;;0.00;0.00;;;;;;;;;;5049565;28;20037;-84
2022/11/21 12:17:37;;;;;;;0.00;0.00;;;;;;;;;;5016437;28;20489;-82
2022/11/21 12:20:10;;;;;;;0.00;0.00;;;;;;;;;;5045811;28;20025;-83
2022/11/21 12:22:40;;;;;;;0.00;0.00;;;;;;;;;;5041554;28;20025;-83
2022/11/21 12:25:13;;;;;;;0.00;0.00;;;;;;;;;;5041581;28;20025;-80
2022/11/21 12:27:45;;;;;;;0.00;0.00;;;;;;;;;;5041267;28;20029;-83
2022/11/21 12:30:24;;;;;;;0.00;0.00;;;;;;;;;;5043478;28;20029;-82
2022/11/21 12:33:05;;;;;;;0.00;0.00;;;;;;;;;;5023617;28;20469;-81
2022/11/21 12:35:40;;;;;;;0.00;0.00;;;;;;;;;;5045368;28;20025;-83
2022/11/21 12:38:25;;;;;;;0.00;0.00;;;;;;;;;;5044669;28;20531;-83
2022/11/21 12:42:48;;;;;;;0.00;0.00;;;;;;;;;;5042597;28;20056;-82
2022/11/21 12:44:13;;;;;;;0.00;0.00;;;;;;;;;;5043527;28;20116;-83
2022/11/21 12:46:39;;;;;;;0.00;0.00;;;;;;;;;;5045549;28;20040;-82
2022/11/21 12:54:56;;;;;;;0.00;0.00;;;;;;;;;;5043859;28;20044;-81
2022/11/21 12:57:29;;;;;;;0.00;0.00;;;;;;;;;;5040819;28;20031;-87
2022/11/21 13:00:03;;;;;;;0.00;0.00;;;;;;;;;;5042446;28;20048;-82
2022/11/21 13:02:32;;;;;;;0.00;0.00;;;;;;;;;;5042260;28;20139;-82
2022/11/21 13:05:00;;;;;;;0.00;0.00;;;;;;;;;;5060887;28;20021;-84
2022/11/21 13:07:31;;;;;;;0.00;0.00;;;;;;;;;;5051425;28;20017;-84
2022/11/21 13:09:59;;;;;;;0.00;0.00;;;;;;;;;;5048073;28;20045;-82
2022/11/21 13:12:40;;;;;;;0.00;0.00;;;;;;;;;;5049175;28;20503;-81
2022/11/21 13:15:06;;;;;;;0.00;0.00;;;;;;;;;;5050159;28;20508;-83
2022/11/21 13:17:35;;;;;;;0.00;0.00;;;;;;;;;;5051446;28;20227;-83
2022/11/21 13:20:20;;;;;;;0.00;0.00;;;;;;;;;;5048698;28;20169;-83
2022/11/21 13:22:46;;;;;;;0.00;0.00;;;;;;;;;;5045693;28;20025;-83
2022/11/21 13:25:13;;;;;;;0.00;0.00;;;;;;;;;;5052705;28;20083;-82
2022/11/21 13:27:39;;;;;;;0.00;0.00;;;;;;;;;;5051808;28;20024;-84
2022/11/21 13:30:14;;;;;;;0.00;0.00;;;;;;;;;;5052455;28;20469;-83
2022/11/21 13:32:43;;;;;;;0.00;0.00;;;;;;;;;;5052922;28;20067;-80
2022/11/21 13:35:16;;;;;;;0.00;0.00;;;;;;;;;;5035336;28;20492;-83
2022/11/21 13:38:02;;;;;;;0.00;0.00;;;;;;;;;;5048087;28;20033;-81
2022/11/21 13:40:29;;;;;;;0.00;0.00;;;;;;;;;;5047903;28;20025;-83
2022/11/21 13:43:15;;;;;;;0.00;0.00;;;;;;;;;;5046366;28;20051;-82
2022/11/21 13:45:43;;;;;;;0.00;0.00;;;;;;;;;;5053907;28;20033;-83
2022/11/21 13:48:20;;;;;;;0.00;0.00;;;;;;;;;;5049762;28;20029;-83
2022/11/21 13:50:55;;;;;;;0.00;0.00;;;;;;;;;;5051005;28;20029;-80
2022/11/21 13:53:31;;;;;;;0.00;0.00;;;;;;;;;;5053293;28;20021;-83
2022/11/21 13:55:58;;;;;;;0.00;0.00;;;;;;;;;;5053344;28;20075;-82
2022/11/21 13:58:33;;;;;;;0.00;0.00;;;;;;;;;;5052846;28;20037;-83
2022/11/21 14:01:11;;;;;;;0.00;0.00;;;;;;;;;;5047207;28;20100;-83
2022/11/21 14:03:43;;;;;;;0.00;0.00;;;;;;;;;;5042862;28;20029;-80
2022/11/21 14:06:16;;;;;;;0.00;0.00;;;;;;;;;;5050110;28;20071;-85
2022/11/21 14:08:42;;;;;;;0.00;0.00;;;;;;;;;;5048831;28;20357;-81
2022/11/21 14:11:19;;;;;;;0.00;0.00;;;;;;;;;;5042251;28;20040;-84
2022/11/21 14:13:47;;;;;;;0.00;0.00;;;;;;;;;;5046332;28;20035;-83
2022/11/21 14:16:23;;;;;;;0.00;0.00;;;;;;;;;;5045913;28;20041;-82
2022/11/21 14:18:50;;;;;;;0.00;0.00;;;;;;;;;;5047822;28;20025;-83
2022/11/21 14:21:25;;;;;;;0.00;0.00;;;;;;;;;;5054440;28;20524;-81
2022/11/21 14:23:53;;;;;;;0.00;0.00;;;;;;;;;;5049096;28;20028;-82
2022/11/21 14:26:20;;;;;;;0.00;0.00;;;;;;;;;;5048386;28;20029;-83
2022/11/21 14:28:47;;;;;;;0.00;0.00;;;;;;;;;;5051396;28;20066;-84
2022/11/21 14:31:14;;;;;;;0.00;0.00;;;;;;;;;;5030927;28;20107;-83
2022/11/21 14:33:41;;;;;;;0.00;0.00;;;;;;;;;;5053350;28;20070;-85
2022/11/21 14:36:19;;;;;;;0.00;0.00;;;;;;;;;;5050184;28;20104;-82
2022/11/21 14:38:47;;;;;;;0.00;0.00;;;;;;;;;;5048151;28;20021;-85
2022/11/21 14:41:25;;;;;;;0.00;0.00;;;;;;;;;;5046177;28;20021;-84
2022/11/21 14:43:58;;;;;;;0.00;0.00;;;;;;;;;;5051446;28;20029;-83
2022/11/21 14:46:25;;;;;;;0.00;0.00;;;;;;;;;;5052375;28;20113;-83
2022/11/21 14:48:52;;;;;;;0.00;0.00;;;;;;;;;;5055095;28;20051;-83
2022/11/21 14:51:23;;;;;;;0.00;0.00;;;;;;;;;;5051614;28;20017;-83
2022/11/21 14:53:51;;;;;;;0.00;0.00;;;;;;;;;;5050433;28;20033;-83
2022/11/21 14:56:29;;;;;;;0.00;0.00;;;;;;;;;;5050864;28;20098;-83
2022/11/21 14:58:57;;;;;;;0.00;0.00;;;;;;;;;;5054041;28;20028;-83
2022/11/21 15:01:23;;;;;;;0.00;0.00;;;;;;;;;;5049179;28;20039;-82
2022/11/21 15:03:57;;;;;;;0.00;0.00;;;;;;;;;;5036486;28;20449;-83
2022/11/21 15:06:25;;;;;;;0.00;0.00;;;;;;;;;;5053845;28;20115;-83
2022/11/21 15:08:51;;;;;;;0.00;0.00;;;;;;;;;;5053534;28;20045;-82
2022/11/21 15:11:18;;;;;;;0.00;0.00;;;;;;;;;;5053025;28;20055;-83
2022/11/21 15:13:46;;;;;;;0.00;0.00;;;;;;;;;;5049242;28;20021;-83
2022/11/21 15:16:12;;;;;;;0.00;0.00;;;;;;;;;;5052269;28;20368;-83
2022/11/21 15:18:41;;;;;;;0.00;0.00;;;;;;;;;;5052631;28;20035;-81
2022/11/21 15:21:07;;;;;;;0.00;0.00;;;;;;;;;;5051954;28;20505;-81
2022/11/21 15:23:37;;;;;;;0.00;0.00;;;;;;;;;;5051663;28;20465;-82
2022/11/21 15:26:03;;;;;;;0.00;0.00;;;;;;;;;;5048942;28;20029;-82
2022/11/21 15:28:30;;;;;;;0.00;0.00;;;;;;;;;;5051851;28;20044;-83
2022/11/21 15:31:35;;;;;;;0.00;0.00;;;;;;;;;;5052299;28;20017;-84